sensor_id;sensor_type;location;lat;lon;timestamp;P1;durP1;ratioP1;P2;durP2;ratioP2
78787;SDS011;68131;52.508;5.502;2023-04-24T00:01:31;1.55;;;1.00;;
78787;SDS011;68131;52.508;5.502;2023-04-24T00:04:02;2.25;;;1.17;;
78787;SDS011;68131;52.508;5.502;2023-04-24T00:06:35;1.63;;;1.10;;
78787;SDS011;68131;52.508;5.502;2023-04-24T00:09:08;1.77;;;1.10;;
78787;SDS011;68131;52.508;5.502;2023-04-24T00:11:38;1.55;;;1.40;;
78787;SDS011;68131;52.508;5.502;2023-04-24T00:14:07;1.60;;;1.20;;
78787;SDS011;68131;52.508;5.502;2023-04-24T00:16:36;1.77;;;1.20;;
78787;SDS011;68131;52.508;5.502;2023-04-24T00:19:05;1.58;;;0.80;;
78787;SDS011;68131;52.508;5.502;2023-04-24T00:21:37;1.50;;;1.30;;
78787;SDS011;68131;52.508;5.502;2023-04-24T00:24:06;1.77;;;1.40;;
78787;SDS011;68131;52.508;5.502;2023-04-24T00:26:36;2.15;;;1.42;;
78787;SDS011;68131;52.508;5.502;2023-04-24T00:29:05;2.55;;;1.40;;
78787;SDS011;68131;52.508;5.502;2023-04-24T00:31:35;2.00;;;1.80;;
78787;SDS011;68131;52.508;5.502;2023-04-24T00:34:04;3.25;;;1.80;;
78787;SDS011;68131;52.508;5.502;2023-04-24T00:36:33;2.35;;;2.00;;
78787;SDS011;68131;52.508;5.502;2023-04-24T00:39:05;3.42;;;2.17;;
78787;SDS011;68131;52.508;5.502;2023-04-24T00:41:34;3.20;;;2.33;;
78787;SDS011;68131;52.508;5.502;2023-04-24T00:44:03;2.63;;;2.40;;
78787;SDS011;68131;52.508;5.502;2023-04-24T00:46:32;3.83;;;2.55;;
78787;SDS011;68131;52.508;5.502;2023-04-24T00:49:02;4.07;;;3.22;;
78787;SDS011;68131;52.508;5.502;2023-04-24T00:51:31;4.38;;;2.90;;
78787;SDS011;68131;52.508;5.502;2023-04-24T00:54:00;5.20;;;3.45;;
78787;SDS011;68131;52.508;5.502;2023-04-24T00:56:32;5.55;;;3.72;;
78787;SDS011;68131;52.508;5.502;2023-04-24T00:59:01;4.22;;;3.50;;
78787;SDS011;68131;52.508;5.502;2023-04-24T01:01:30;6.07;;;4.55;;
78787;SDS011;68131;52.508;5.502;2023-04-24T01:04:00;5.65;;;4.28;;
78787;SDS011;68131;52.508;5.502;2023-04-24T01:06:29;6.25;;;4.85;;
78787;SDS011;68131;52.508;5.502;2023-04-24T01:08:59;5.55;;;4.20;;
78787;SDS011;68131;52.508;5.502;2023-04-24T01:11:32;6.10;;;4.30;;
78787;SDS011;68131;52.508;5.502;2023-04-24T01:14:01;5.90;;;4.47;;
78787;SDS011;68131;52.508;5.502;2023-04-24T01:16:30;5.80;;;4.75;;
78787;SDS011;68131;52.508;5.502;2023-04-24T01:19:00;7.03;;;5.03;;
78787;SDS011;68131;52.508;5.502;2023-04-24T01:21:29;6.45;;;4.93;;
78787;SDS011;68131;52.508;5.502;2023-04-24T01:24:05;6.60;;;4.68;;
78787;SDS011;68131;52.508;5.502;2023-04-24T01:26:34;7.78;;;4.82;;
78787;SDS011;68131;52.508;5.502;2023-04-24T01:29:04;5.55;;;4.50;;
78787;SDS011;68131;52.508;5.502;2023-04-24T01:31:34;5.85;;;4.45;;
78787;SDS011;68131;52.508;5.502;2023-04-24T01:34:03;7.35;;;4.20;;
78787;SDS011;68131;52.508;5.502;2023-04-24T01:36:32;5.07;;;3.60;;
78787;SDS011;68131;52.508;5.502;2023-04-24T01:39:05;4.55;;;3.70;;
78787;SDS011;68131;52.508;5.502;2023-04-24T01:41:34;4.75;;;3.67;;
78787;SDS011;68131;52.508;5.502;2023-04-24T01:44:03;4.82;;;3.45;;
78787;SDS011;68131;52.508;5.502;2023-04-24T01:46:33;3.85;;;2.70;;
78787;SDS011;68131;52.508;5.502;2023-04-24T01:49:03;4.30;;;2.20;;
78787;SDS011;68131;52.508;5.502;2023-04-24T01:51:32;2.22;;;1.60;;
78787;SDS011;68131;52.508;5.502;2023-04-24T01:54:05;1.83;;;0.80;;
78787;SDS011;68131;52.508;5.502;2023-04-24T01:56:35;1.58;;;0.50;;
78787;SDS011;68131;52.508;5.502;2023-04-24T01:59:07;1.05;;;0.30;;
78787;SDS011;68131;52.508;5.502;2023-04-24T02:01:37;0.68;;;0.40;;
78787;SDS011;68131;52.508;5.502;2023-04-24T02:04:07;0.60;;;0.32;;
78787;SDS011;68131;52.508;5.502;2023-04-24T02:06:36;0.20;;;0.20;;
78787;SDS011;68131;52.508;5.502;2023-04-24T02:09:08;0.30;;;0.20;;
78787;SDS011;68131;52.508;5.502;2023-04-24T02:11:37;1.00;;;0.20;;
78787;SDS011;68131;52.508;5.502;2023-04-24T02:14:06;0.85;;;0.20;;
78787;SDS011;68131;52.508;5.502;2023-04-24T02:16:39;0.77;;;0.20;;
78787;SDS011;68131;52.508;5.502;2023-04-24T02:19:09;2.15;;;0.52;;
78787;SDS011;68131;52.508;5.502;2023-04-24T02:21:38;2.00;;;0.70;;
78787;SDS011;68131;52.508;5.502;2023-04-24T02:24:10;0.82;;;0.60;;
78787;SDS011;68131;52.508;5.502;2023-04-24T02:26:40;1.48;;;0.63;;
78787;SDS011;68131;52.508;5.502;2023-04-24T02:29:09;1.10;;;0.47;;
78787;SDS011;68131;52.508;5.502;2023-04-24T02:31:38;2.38;;;0.55;;
78787;SDS011;68131;52.508;5.502;2023-04-24T02:34:07;2.33;;;0.38;;
78787;SDS011;68131;52.508;5.502;2023-04-24T02:36:36;1.50;;;0.52;;
78787;SDS011;68131;52.508;5.502;2023-04-24T02:39:07;0.70;;;0.30;;
78787;SDS011;68131;52.508;5.502;2023-04-24T02:41:39;1.95;;;0.30;;
78787;SDS011;68131;52.508;5.502;2023-04-24T02:44:09;1.38;;;0.25;;
78787;SDS011;68131;52.508;5.502;2023-04-24T02:46:39;0.70;;;0.30;;
78787;SDS011;68131;52.508;5.502;2023-04-24T02:49:08;0.52;;;0.30;;
78787;SDS011;68131;52.508;5.502;2023-04-24T02:51:37;0.17;;;0.17;;
78787;SDS011;68131;52.508;5.502;2023-04-24T02:54:07;0.80;;;0.20;;
78787;SDS011;68131;52.508;5.502;2023-04-24T02:56:39;1.30;;;0.10;;
78787;SDS011;68131;52.508;5.502;2023-04-24T02:59:08;0.75;;;0.20;;
78787;SDS011;68131;52.508;5.502;2023-04-24T03:01:37;1.60;;;0.20;;
78787;SDS011;68131;52.508;5.502;2023-04-24T03:04:06;0.17;;;0.10;;
78787;SDS011;68131;52.508;5.502;2023-04-24T03:06:36;1.45;;;0.30;;
78787;SDS011;68131;52.508;5.502;2023-04-24T03:09:05;1.73;;;0.17;;
78787;SDS011;68131;52.508;5.502;2023-04-24T03:11:34;0.35;;;0.20;;
78787;SDS011;68131;52.508;5.502;2023-04-24T03:14:06;0.40;;;0.20;;
78787;SDS011;68131;52.508;5.502;2023-04-24T03:16:37;2.53;;;0.40;;
78787;SDS011;68131;52.508;5.502;2023-04-24T03:19:06;3.85;;;0.50;;
78787;SDS011;68131;52.508;5.502;2023-04-24T03:21:43;0.75;;;0.30;;
78787;SDS011;68131;52.508;5.502;2023-04-24T03:24:13;0.68;;;0.30;;
78787;SDS011;68131;52.508;5.502;2023-04-24T03:26:42;2.15;;;0.47;;
78787;SDS011;68131;52.508;5.502;2023-04-24T03:29:33;0.45;;;0.30;;
78787;SDS011;68131;52.508;5.502;2023-04-24T03:32:02;3.90;;;0.60;;
78787;SDS011;68131;52.508;5.502;2023-04-24T03:34:33;3.75;;;0.77;;
78787;SDS011;68131;52.508;5.502;2023-04-24T03:37:02;1.20;;;0.40;;
78787;SDS011;68131;52.508;5.502;2023-04-24T03:39:33;1.52;;;0.50;;
78787;SDS011;68131;52.508;5.502;2023-04-24T03:42:02;1.23;;;0.73;;
78787;SDS011;68131;52.508;5.502;2023-04-24T03:44:46;1.45;;;0.60;;
78787;SDS011;68131;52.508;5.502;2023-04-24T03:47:16;0.60;;;0.47;;
78787;SDS011;68131;52.508;5.502;2023-04-24T03:49:46;1.23;;;0.30;;
78787;SDS011;68131;52.508;5.502;2023-04-24T03:52:15;0.30;;;0.20;;
78787;SDS011;68131;52.508;5.502;2023-04-24T03:54:45;0.45;;;0.20;;
78787;SDS011;68131;52.508;5.502;2023-04-24T03:57:14;0.68;;;0.22;;
78787;SDS011;68131;52.508;5.502;2023-04-24T03:59:58;0.32;;;0.20;;
78787;SDS011;68131;52.508;5.502;2023-04-24T04:02:40;1.05;;;0.20;;
78787;SDS011;68131;52.508;5.502;2023-04-24T04:05:09;0.10;;;0.10;;
78787;SDS011;68131;52.508;5.502;2023-04-24T04:07:38;0.80;;;0.08;;
78787;SDS011;68131;52.508;5.502;2023-04-24T04:10:08;1.38;;;0.10;;
78787;SDS011;68131;52.508;5.502;2023-04-24T04:12:37;0.45;;;0.20;;
78787;SDS011;68131;52.508;5.502;2023-04-24T04:15:09;0.73;;;0.15;;
78787;SDS011;68131;52.508;5.502;2023-04-24T04:17:40;0.63;;;0.20;;
78787;SDS011;68131;52.508;5.502;2023-04-24T04:20:10;0.60;;;0.30;;
78787;SDS011;68131;52.508;5.502;2023-04-24T04:22:40;0.77;;;0.30;;
78787;SDS011;68131;52.508;5.502;2023-04-24T04:25:10;1.35;;;0.50;;
78787;SDS011;68131;52.508;5.502;2023-04-24T04:27:40;1.75;;;0.70;;
78787;SDS011;68131;52.508;5.502;2023-04-24T04:30:14;2.63;;;0.70;;
78787;SDS011;68131;52.508;5.502;2023-04-24T04:32:49;1.85;;;0.45;;
78787;SDS011;68131;52.508;5.502;2023-04-24T04:35:18;1.83;;;0.60;;
78787;SDS011;68131;52.508;5.502;2023-04-24T04:37:47;1.55;;;0.40;;
78787;SDS011;68131;52.508;5.502;2023-04-24T04:40:19;2.05;;;0.60;;
78787;SDS011;68131;52.508;5.502;2023-04-24T04:42:55;1.25;;;0.70;;
78787;SDS011;68131;52.508;5.502;2023-04-24T04:45:29;1.77;;;0.60;;
78787;SDS011;68131;52.508;5.502;2023-04-24T04:48:27;1.25;;;0.63;;
78787;SDS011;68131;52.508;5.502;2023-04-24T04:50:58;1.85;;;0.75;;
78787;SDS011;68131;52.508;5.502;2023-04-24T04:53:28;1.83;;;0.70;;
78787;SDS011;68131;52.508;5.502;2023-04-24T04:55:57;1.60;;;0.70;;
78787;SDS011;68131;52.508;5.502;2023-04-24T04:58:33;1.35;;;0.60;;
78787;SDS011;68131;52.508;5.502;2023-04-24T05:01:06;1.27;;;0.50;;
78787;SDS011;68131;52.508;5.502;2023-04-24T05:03:40;1.17;;;0.70;;
78787;SDS011;68131;52.508;5.502;2023-04-24T05:06:12;1.83;;;0.93;;
78787;SDS011;68131;52.508;5.502;2023-04-24T05:08:42;1.98;;;0.63;;
78787;SDS011;68131;52.508;5.502;2023-04-24T05:11:22;2.05;;;1.05;;
78787;SDS011;68131;52.508;5.502;2023-04-24T05:13:52;1.77;;;0.98;;
78787;SDS011;68131;52.508;5.502;2023-04-24T05:16:31;0.98;;;0.70;;
78787;SDS011;68131;52.508;5.502;2023-04-24T05:19:01;3.00;;;1.20;;
78787;SDS011;68131;52.508;5.502;2023-04-24T05:21:35;1.52;;;0.73;;
78787;SDS011;68131;52.508;5.502;2023-04-24T05:24:05;3.15;;;0.90;;
78787;SDS011;68131;52.508;5.502;2023-04-24T05:26:43;1.95;;;1.10;;
78787;SDS011;68131;52.508;5.502;2023-04-24T05:29:14;2.67;;;0.88;;
78787;SDS011;68131;52.508;5.502;2023-04-24T05:31:47;2.13;;;1.10;;
78787;SDS011;68131;52.508;5.502;2023-04-24T05:34:16;2.33;;;0.93;;
78787;SDS011;68131;52.508;5.502;2023-04-24T05:36:49;1.48;;;1.15;;
78787;SDS011;68131;52.508;5.502;2023-04-24T05:39:19;2.15;;;1.20;;
78787;SDS011;68131;52.508;5.502;2023-04-24T05:41:50;2.10;;;1.00;;
78787;SDS011;68131;52.508;5.502;2023-04-24T05:44:20;2.75;;;1.45;;
78787;SDS011;68131;52.508;5.502;2023-04-24T05:46:52;2.00;;;1.50;;
78787;SDS011;68131;52.508;5.502;2023-04-24T05:49:21;3.45;;;1.80;;
78787;SDS011;68131;52.508;5.502;2023-04-24T05:51:51;3.30;;;1.95;;
78787;SDS011;68131;52.508;5.502;2023-04-24T05:54:20;2.42;;;1.30;;
78787;SDS011;68131;52.508;5.502;2023-04-24T05:56:49;2.22;;;1.10;;
78787;SDS011;68131;52.508;5.502;2023-04-24T06:02:01;3.00;;;1.58;;
78787;SDS011;68131;52.508;5.502;2023-04-24T06:04:31;2.75;;;1.50;;
78787;SDS011;68131;52.508;5.502;2023-04-24T06:07:01;4.00;;;1.40;;
78787;SDS011;68131;52.508;5.502;2023-04-24T06:09:30;4.28;;;1.70;;
78787;SDS011;68131;52.508;5.502;2023-04-24T06:11:59;4.05;;;1.27;;
78787;SDS011;68131;52.508;5.502;2023-04-24T06:14:39;2.95;;;1.10;;
78787;SDS011;68131;52.508;5.502;2023-04-24T06:17:19;2.97;;;1.10;;
78787;SDS011;68131;52.508;5.502;2023-04-24T06:19:48;3.42;;;1.73;;
78787;SDS011;68131;52.508;5.502;2023-04-24T06:22:18;8.07;;;4.18;;
78787;SDS011;68131;52.508;5.502;2023-04-24T06:24:47;9.77;;;4.43;;
78787;SDS011;68131;52.508;5.502;2023-04-24T06:27:17;9.57;;;5.00;;
78787;SDS011;68131;52.508;5.502;2023-04-24T06:29:46;14.60;;;7.47;;
78787;SDS011;68131;52.508;5.502;2023-04-24T06:32:23;15.90;;;7.00;;
78787;SDS011;68131;52.508;5.502;2023-04-24T06:34:52;12.85;;;7.40;;
78787;SDS011;68131;52.508;5.502;2023-04-24T06:37:22;11.77;;;6.35;;
78787;SDS011;68131;52.508;5.502;2023-04-24T06:39:51;9.43;;;5.15;;
78787;SDS011;68131;52.508;5.502;2023-04-24T06:42:20;10.15;;;4.25;;
78787;SDS011;68131;52.508;5.502;2023-04-24T06:44:50;9.27;;;4.45;;
78787;SDS011;68131;52.508;5.502;2023-04-24T06:47:19;7.57;;;4.18;;
78787;SDS011;68131;52.508;5.502;2023-04-24T06:49:51;8.27;;;4.53;;
78787;SDS011;68131;52.508;5.502;2023-04-24T06:52:20;8.93;;;4.15;;
78787;SDS011;68131;52.508;5.502;2023-04-24T06:54:50;9.88;;;4.32;;
78787;SDS011;68131;52.508;5.502;2023-04-24T06:57:19;8.13;;;4.15;;
78787;SDS011;68131;52.508;5.502;2023-04-24T06:59:48;10.82;;;4.93;;
78787;SDS011;68131;52.508;5.502;2023-04-24T07:02:17;10.20;;;5.07;;
78787;SDS011;68131;52.508;5.502;2023-04-24T07:04:46;13.93;;;5.05;;
78787;SDS011;68131;52.508;5.502;2023-04-24T07:07:18;11.38;;;5.50;;
78787;SDS011;68131;52.508;5.502;2023-04-24T07:09:49;10.75;;;6.18;;
78787;SDS011;68131;52.508;5.502;2023-04-24T07:12:19;9.95;;;5.53;;
78787;SDS011;68131;52.508;5.502;2023-04-24T07:14:49;13.82;;;6.28;;
78787;SDS011;68131;52.508;5.502;2023-04-24T07:17:19;10.23;;;5.43;;
78787;SDS011;68131;52.508;5.502;2023-04-24T07:19:48;9.13;;;4.68;;
78787;SDS011;68131;52.508;5.502;2023-04-24T07:22:20;7.63;;;5.13;;
78787;SDS011;68131;52.508;5.502;2023-04-24T07:24:49;9.05;;;4.68;;
78787;SDS011;68131;52.508;5.502;2023-04-24T07:27:18;10.88;;;4.43;;
78787;SDS011;68131;52.508;5.502;2023-04-24T07:29:47;9.60;;;4.55;;
78787;SDS011;68131;52.508;5.502;2023-04-24T07:32:16;9.60;;;4.82;;
78787;SDS011;68131;52.508;5.502;2023-04-24T07:34:45;8.25;;;3.90;;
78787;SDS011;68131;52.508;5.502;2023-04-24T07:37:20;6.45;;;4.65;;
78787;SDS011;68131;52.508;5.502;2023-04-24T07:39:49;5.90;;;3.72;;
78787;SDS011;68131;52.508;5.502;2023-04-24T07:42:18;9.52;;;4.05;;
78787;SDS011;68131;52.508;5.502;2023-04-24T07:44:47;8.60;;;4.32;;
78787;SDS011;68131;52.508;5.502;2023-04-24T07:47:16;10.38;;;4.00;;
78787;SDS011;68131;52.508;5.502;2023-04-24T07:49:46;6.70;;;4.13;;
78787;SDS011;68131;52.508;5.502;2023-04-24T07:52:15;6.10;;;3.92;;
78787;SDS011;68131;52.508;5.502;2023-04-24T07:54:46;8.02;;;3.97;;
78787;SDS011;68131;52.508;5.502;2023-04-24T07:57:15;11.07;;;3.67;;
78787;SDS011;68131;52.508;5.502;2023-04-24T07:59:45;17.38;;;4.93;;
78787;SDS011;68131;52.508;5.502;2023-04-24T08:02:14;9.80;;;3.67;;
78787;SDS011;68131;52.508;5.502;2023-04-24T08:04:43;5.75;;;3.85;;
78787;SDS011;68131;52.508;5.502;2023-04-24T08:07:12;10.45;;;4.25;;
78787;SDS011;68131;52.508;5.502;2023-04-24T08:09:42;8.98;;;4.13;;
78787;SDS011;68131;52.508;5.502;2023-04-24T08:12:14;5.43;;;3.30;;
78787;SDS011;68131;52.508;5.502;2023-04-24T08:14:43;7.60;;;3.92;;
78787;SDS011;68131;52.508;5.502;2023-04-24T08:17:12;10.70;;;4.00;;
78787;SDS011;68131;52.508;5.502;2023-04-24T08:19:41;9.75;;;3.70;;
78787;SDS011;68131;52.508;5.502;2023-04-24T08:22:14;10.68;;;4.20;;
78787;SDS011;68131;52.508;5.502;2023-04-24T08:24:43;12.48;;;4.43;;
78787;SDS011;68131;52.508;5.502;2023-04-24T08:27:14;8.40;;;3.80;;
78787;SDS011;68131;52.508;5.502;2023-04-24T08:29:43;8.73;;;3.55;;
78787;SDS011;68131;52.508;5.502;2023-04-24T08:32:13;7.00;;;3.08;;
78787;SDS011;68131;52.508;5.502;2023-04-24T08:34:42;7.70;;;3.20;;
78787;SDS011;68131;52.508;5.502;2023-04-24T08:37:11;6.28;;;3.05;;
78787;SDS011;68131;52.508;5.502;2023-04-24T08:39:40;7.60;;;3.28;;
78787;SDS011;68131;52.508;5.502;2023-04-24T08:42:09;8.95;;;2.85;;
78787;SDS011;68131;52.508;5.502;2023-04-24T08:44:44;6.55;;;3.13;;
78787;SDS011;68131;52.508;5.502;2023-04-24T08:47:13;7.50;;;2.95;;
78787;SDS011;68131;52.508;5.502;2023-04-24T08:49:44;5.15;;;3.10;;
78787;SDS011;68131;52.508;5.502;2023-04-24T08:52:16;8.57;;;2.58;;
78787;SDS011;68131;52.508;5.502;2023-04-24T08:54:45;5.93;;;2.45;;
78787;SDS011;68131;52.508;5.502;2023-04-24T08:57:15;7.72;;;2.70;;
78787;SDS011;68131;52.508;5.502;2023-04-24T08:59:48;5.43;;;2.40;;
78787;SDS011;68131;52.508;5.502;2023-04-24T09:02:17;9.52;;;2.88;;
78787;SDS011;68131;52.508;5.502;2023-04-24T09:04:47;7.93;;;2.70;;
78787;SDS011;68131;52.508;5.502;2023-04-24T09:07:16;6.43;;;2.85;;
78787;SDS011;68131;52.508;5.502;2023-04-24T09:09:47;6.10;;;2.33;;
78787;SDS011;68131;52.508;5.502;2023-04-24T09:12:18;14.88;;;2.78;;
78787;SDS011;68131;52.508;5.502;2023-04-24T09:14:51;8.38;;;2.40;;
78787;SDS011;68131;52.508;5.502;2023-04-24T09:17:21;10.95;;;2.00;;
78787;SDS011;68131;52.508;5.502;2023-04-24T09:19:52;9.02;;;1.70;;
78787;SDS011;68131;52.508;5.502;2023-04-24T09:22:21;5.43;;;1.30;;
78787;SDS011;68131;52.508;5.502;2023-04-24T09:24:59;10.18;;;1.90;;
78787;SDS011;68131;52.508;5.502;2023-04-24T09:27:31;7.63;;;1.83;;
78787;SDS011;68131;52.508;5.502;2023-04-24T09:30:03;9.15;;;1.77;;
78787;SDS011;68131;52.508;5.502;2023-04-24T09:32:34;6.88;;;1.50;;
78787;SDS011;68131;52.508;5.502;2023-04-24T09:35:07;7.78;;;1.90;;
78787;SDS011;68131;52.508;5.502;2023-04-24T09:37:37;7.07;;;1.50;;
78787;SDS011;68131;52.508;5.502;2023-04-24T09:40:08;4.85;;;1.50;;
78787;SDS011;68131;52.508;5.502;2023-04-24T09:42:45;7.18;;;1.38;;
78787;SDS011;68131;52.508;5.502;2023-04-24T09:45:18;6.57;;;1.70;;
78787;SDS011;68131;52.508;5.502;2023-04-24T09:47:51;7.07;;;1.63;;
78787;SDS011;68131;52.508;5.502;2023-04-24T09:50:20;10.13;;;1.55;;
78787;SDS011;68131;52.508;5.502;2023-04-24T09:52:56;5.97;;;1.58;;
78787;SDS011;68131;52.508;5.502;2023-04-24T09:55:26;7.95;;;1.20;;
78787;SDS011;68131;52.508;5.502;2023-04-24T09:57:56;10.75;;;1.95;;
78787;SDS011;68131;52.508;5.502;2023-04-24T10:00:30;8.85;;;1.65;;
78787;SDS011;68131;52.508;5.502;2023-04-24T10:03:00;5.07;;;1.42;;
78787;SDS011;68131;52.508;5.502;2023-04-24T10:05:31;5.05;;;1.35;;
78787;SDS011;68131;52.508;5.502;2023-04-24T10:08:02;6.78;;;1.10;;
78787;SDS011;68131;52.508;5.502;2023-04-24T10:10:33;5.07;;;1.17;;
78787;SDS011;68131;52.508;5.502;2023-04-24T10:13:04;2.67;;;1.20;;
78787;SDS011;68131;52.508;5.502;2023-04-24T10:15:35;5.95;;;1.05;;
78787;SDS011;68131;52.508;5.502;2023-04-24T10:18:06;2.78;;;1.48;;
78787;SDS011;68131;52.508;5.502;2023-04-24T10:20:36;3.90;;;1.10;;
78787;SDS011;68131;52.508;5.502;2023-04-24T10:23:06;4.57;;;1.17;;
78787;SDS011;68131;52.508;5.502;2023-04-24T10:25:36;2.72;;;0.90;;
78787;SDS011;68131;52.508;5.502;2023-04-24T10:28:05;4.47;;;0.95;;
78787;SDS011;68131;52.508;5.502;2023-04-24T10:30:37;3.03;;;0.95;;
78787;SDS011;68131;52.508;5.502;2023-04-24T10:33:11;5.38;;;1.15;;
78787;SDS011;68131;52.508;5.502;2023-04-24T10:35:41;3.70;;;1.17;;
78787;SDS011;68131;52.508;5.502;2023-04-24T10:38:15;7.63;;;1.20;;
78787;SDS011;68131;52.508;5.502;2023-04-24T10:40:47;5.05;;;0.98;;
78787;SDS011;68131;52.508;5.502;2023-04-24T10:43:16;1.90;;;1.40;;
78787;SDS011;68131;52.508;5.502;2023-04-24T10:48:35;2.25;;;1.10;;
78787;SDS011;68131;52.508;5.502;2023-04-24T10:51:11;4.70;;;1.10;;
78787;SDS011;68131;52.508;5.502;2023-04-24T10:53:41;1.65;;;0.90;;
78787;SDS011;68131;52.508;5.502;2023-04-24T10:56:10;4.15;;;0.73;;
78787;SDS011;68131;52.508;5.502;2023-04-24T10:58:40;1.45;;;0.77;;
78787;SDS011;68131;52.508;5.502;2023-04-24T11:01:25;1.55;;;0.50;;
78787;SDS011;68131;52.508;5.502;2023-04-24T11:03:56;1.48;;;0.43;;
78787;SDS011;68131;52.508;5.502;2023-04-24T11:06:31;1.73;;;0.40;;
78787;SDS011;68131;52.508;5.502;2023-04-24T11:09:02;1.48;;;0.50;;
78787;SDS011;68131;52.508;5.502;2023-04-24T11:11:33;4.38;;;0.82;;
78787;SDS011;68131;52.508;5.502;2023-04-24T11:14:06;3.50;;;0.63;;
78787;SDS011;68131;52.508;5.502;2023-04-24T11:16:42;4.88;;;1.02;;
78787;SDS011;68131;52.508;5.502;2023-04-24T11:19:20;2.83;;;0.70;;
78787;SDS011;68131;52.508;5.502;2023-04-24T11:21:55;1.95;;;0.70;;
78787;SDS011;68131;52.508;5.502;2023-04-24T11:24:28;10.43;;;0.88;;
78787;SDS011;68131;52.508;5.502;2023-04-24T11:27:05;7.07;;;0.90;;
78787;SDS011;68131;52.508;5.502;2023-04-24T11:29:38;7.57;;;1.13;;
78787;SDS011;68131;52.508;5.502;2023-04-24T11:32:18;1.92;;;0.47;;
78787;SDS011;68131;52.508;5.502;2023-04-24T11:34:52;2.70;;;0.60;;
78787;SDS011;68131;52.508;5.502;2023-04-24T11:37:23;4.43;;;0.50;;
78787;SDS011;68131;52.508;5.502;2023-04-24T11:39:55;1.88;;;0.68;;
78787;SDS011;68131;52.508;5.502;2023-04-24T11:42:25;4.95;;;0.52;;
78787;SDS011;68131;52.508;5.502;2023-04-24T11:44:54;4.40;;;0.75;;
78787;SDS011;68131;52.508;5.502;2023-04-24T11:47:31;5.82;;;1.15;;
78787;SDS011;68131;52.508;5.502;2023-04-24T11:50:01;5.47;;;1.15;;
78787;SDS011;68131;52.508;5.502;2023-04-24T11:52:33;1.20;;;0.63;;
78787;SDS011;68131;52.508;5.502;2023-04-24T11:55:06;2.10;;;0.68;;
78787;SDS011;68131;52.508;5.502;2023-04-24T11:57:36;1.95;;;0.60;;
78787;SDS011;68131;52.508;5.502;2023-04-24T12:00:14;2.50;;;0.50;;
78787;SDS011;68131;52.508;5.502;2023-04-24T12:02:47;2.42;;;0.70;;
78787;SDS011;68131;52.508;5.502;2023-04-24T12:05:19;3.50;;;0.60;;
78787;SDS011;68131;52.508;5.502;2023-04-24T12:07:49;4.18;;;0.57;;
78787;SDS011;68131;52.508;5.502;2023-04-24T12:10:19;5.22;;;0.93;;
78787;SDS011;68131;52.508;5.502;2023-04-24T12:12:49;2.70;;;0.60;;
78787;SDS011;68131;52.508;5.502;2023-04-24T12:15:19;3.95;;;0.47;;
78787;SDS011;68131;52.508;5.502;2023-04-24T12:17:53;1.05;;;0.50;;
78787;SDS011;68131;52.508;5.502;2023-04-24T12:20:23;3.28;;;0.65;;
78787;SDS011;68131;52.508;5.502;2023-04-24T12:22:55;3.60;;;0.50;;
78787;SDS011;68131;52.508;5.502;2023-04-24T12:25:26;2.40;;;0.50;;
78787;SDS011;68131;52.508;5.502;2023-04-24T12:28:08;5.15;;;1.23;;
78787;SDS011;68131;52.508;5.502;2023-04-24T12:30:40;3.60;;;0.93;;
78787;SDS011;68131;52.508;5.502;2023-04-24T12:33:13;4.05;;;0.80;;
78787;SDS011;68131;52.508;5.502;2023-04-24T12:35:47;5.05;;;0.60;;
78787;SDS011;68131;52.508;5.502;2023-04-24T12:38:21;2.45;;;0.70;;
78787;SDS011;68131;52.508;5.502;2023-04-24T12:41:01;4.20;;;0.70;;
78787;SDS011;68131;52.508;5.502;2023-04-24T12:43:31;3.85;;;0.80;;
78787;SDS011;68131;52.508;5.502;2023-04-24T12:46:00;6.13;;;0.73;;
78787;SDS011;68131;52.508;5.502;2023-04-24T12:48:32;4.53;;;0.68;;
78787;SDS011;68131;52.508;5.502;2023-04-24T12:51:01;4.68;;;0.88;;
78787;SDS011;68131;52.508;5.502;2023-04-24T12:53:30;5.65;;;0.90;;
78787;SDS011;68131;52.508;5.502;2023-04-24T12:55:59;5.13;;;0.73;;
78787;SDS011;68131;52.508;5.502;2023-04-24T12:58:28;2.60;;;0.80;;
78787;SDS011;68131;52.508;5.502;2023-04-24T13:00:58;5.47;;;0.80;;
78787;SDS011;68131;52.508;5.502;2023-04-24T13:03:27;4.70;;;0.93;;
78787;SDS011;68131;52.508;5.502;2023-04-24T13:05:58;3.20;;;0.93;;
78787;SDS011;68131;52.508;5.502;2023-04-24T13:08:27;4.07;;;0.88;;
78787;SDS011;68131;52.508;5.502;2023-04-24T13:10:56;3.63;;;0.60;;
78787;SDS011;68131;52.508;5.502;2023-04-24T13:13:26;6.55;;;1.00;;
78787;SDS011;68131;52.508;5.502;2023-04-24T13:15:55;1.88;;;0.50;;
78787;SDS011;68131;52.508;5.502;2023-04-24T13:18:24;9.68;;;1.80;;
78787;SDS011;68131;52.508;5.502;2023-04-24T13:20:53;4.32;;;0.90;;
78787;SDS011;68131;52.508;5.502;2023-04-24T13:23:24;2.80;;;0.75;;
78787;SDS011;68131;52.508;5.502;2023-04-24T13:25:54;4.40;;;0.77;;
78787;SDS011;68131;52.508;5.502;2023-04-24T13:28:24;3.20;;;1.83;;
78787;SDS011;68131;52.508;5.502;2023-04-24T13:30:53;6.30;;;1.17;;
78787;SDS011;68131;52.508;5.502;2023-04-24T13:33:22;8.65;;;2.40;;
78787;SDS011;68131;52.508;5.502;2023-04-24T13:35:51;6.13;;;1.38;;
78787;SDS011;68131;52.508;5.502;2023-04-24T13:38:20;3.55;;;1.30;;
78787;SDS011;68131;52.508;5.502;2023-04-24T13:40:52;6.68;;;1.52;;
78787;SDS011;68131;52.508;5.502;2023-04-24T13:43:21;8.48;;;1.58;;
78787;SDS011;68131;52.508;5.502;2023-04-24T13:45:51;6.05;;;1.40;;
78787;SDS011;68131;52.508;5.502;2023-04-24T13:48:20;9.20;;;1.70;;
78787;SDS011;68131;52.508;5.502;2023-04-24T13:50:49;6.72;;;1.40;;
78787;SDS011;68131;52.508;5.502;2023-04-24T13:53:18;7.60;;;1.50;;
78787;SDS011;68131;52.508;5.502;2023-04-24T13:55:47;7.65;;;1.60;;
78787;SDS011;68131;52.508;5.502;2023-04-24T13:58:19;7.05;;;2.10;;
78787;SDS011;68131;52.508;5.502;2023-04-24T14:00:48;6.90;;;1.58;;
78787;SDS011;68131;52.508;5.502;2023-04-24T14:03:17;7.13;;;1.60;;
78787;SDS011;68131;52.508;5.502;2023-04-24T14:05:46;3.45;;;0.90;;
78787;SDS011;68131;52.508;5.502;2023-04-24T14:08:15;7.45;;;1.52;;
78787;SDS011;68131;52.508;5.502;2023-04-24T14:10:44;6.93;;;1.55;;
78787;SDS011;68131;52.508;5.502;2023-04-24T14:13:13;5.78;;;1.48;;
78787;SDS011;68131;52.508;5.502;2023-04-24T14:15:45;8.43;;;1.90;;
78787;SDS011;68131;52.508;5.502;2023-04-24T14:18:15;11.75;;;1.90;;
78787;SDS011;68131;52.508;5.502;2023-04-24T14:20:44;9.75;;;1.60;;
78787;SDS011;68131;52.508;5.502;2023-04-24T14:23:13;6.72;;;1.42;;
78787;SDS011;68131;52.508;5.502;2023-04-24T14:25:42;7.47;;;1.63;;
78787;SDS011;68131;52.508;5.502;2023-04-24T14:28:11;7.95;;;1.33;;
78787;SDS011;68131;52.508;5.502;2023-04-24T14:30:40;5.55;;;1.20;;
78787;SDS011;68131;52.508;5.502;2023-04-24T14:33:12;7.55;;;1.60;;
78787;SDS011;68131;52.508;5.502;2023-04-24T14:35:42;7.32;;;1.70;;
78787;SDS011;68131;52.508;5.502;2023-04-24T14:38:11;9.40;;;1.83;;
78787;SDS011;68131;52.508;5.502;2023-04-24T14:40:40;11.30;;;1.50;;
78787;SDS011;68131;52.508;5.502;2023-04-24T14:43:09;9.02;;;2.13;;
78787;SDS011;68131;52.508;5.502;2023-04-24T14:45:38;9.55;;;2.38;;
78787;SDS011;68131;52.508;5.502;2023-04-24T14:48:08;8.40;;;1.80;;
78787;SDS011;68131;52.508;5.502;2023-04-24T14:50:39;11.25;;;1.67;;
78787;SDS011;68131;52.508;5.502;2023-04-24T14:53:08;8.80;;;1.77;;
78787;SDS011;68131;52.508;5.502;2023-04-24T14:55:38;7.38;;;1.45;;
78787;SDS011;68131;52.508;5.502;2023-04-24T14:58:07;10.55;;;2.20;;
78787;SDS011;68131;52.508;5.502;2023-04-24T15:00:36;9.50;;;2.00;;
78787;SDS011;68131;52.508;5.502;2023-04-24T15:03:05;7.72;;;1.95;;
78787;SDS011;68131;52.508;5.502;2023-04-24T15:05:34;6.80;;;1.90;;
78787;SDS011;68131;52.508;5.502;2023-04-24T15:08:06;9.35;;;2.20;;
78787;SDS011;68131;52.508;5.502;2023-04-24T15:10:35;9.60;;;1.77;;
78787;SDS011;68131;52.508;5.502;2023-04-24T15:13:04;5.40;;;1.60;;